Weather reports worldwide

Advertisment
Fylingdales, United Kingdom (3281): temperature & dewpoint: 09.11.2018 00:00:00 - 15.11.2018 00:00:00 (GMT)Fylingdales, United Kingdom (3281): wind speed & gusts: 09.11.2018 00:00:00 - 15.11.2018 00:00:00 (GMT)Fylingdales, United Kingdom (3281): wind direction: 09.11.2018 00:00:00 - 15.11.2018 00:00:00 (GMT)Fylingdales, United Kingdom (3281): precipitation: 09.11.2018 00:00:00 - 15.11.2018 00:00:00 (GMT)
Date & Time tt [°C] td [°C] ff [km/h] ff [kn] fx [km/h] fx [kn] dd rr [mm]
15.11.2018 00:00:00 6,6 6,1 21 11 - - SSW 0,0
14.11.2018 23:00:00 7,3 6,5 16 9 - - S 0,0
14.11.2018 22:00:00 7,6 7,0 16 9 - - S 0,0
14.11.2018 21:00:00 8,8 7,2 24 13 - - S 0,0
14.11.2018 20:00:00 8,9 7,3 18 10 - - S 0,0
14.11.2018 19:00:00 8,9 7,0 24 13 - - S 0,0
14.11.2018 18:00:00 9,5 7,5 31 17 48 26 S 0,0
14.11.2018 17:00:00 10,4 8,4 34 18 52 28 S 0,0
14.11.2018 16:00:00 11,1 8,4 37 20 54 29 SSW 0,0
14.11.2018 15:00:00 11,3 8,9 31 17 48 26 SSW 0,0
14.11.2018 14:00:00 11,5 9,2 39 21 59 32 SSW 0,0
14.11.2018 13:00:00 11,0 9,4 37 20 54 29 SSW 0,0
14.11.2018 12:00:00 10,6 9,2 39 21 52 28 SSW 0,0
14.11.2018 11:00:00 9,5 8,8 37 20 55 30 SSW 0,0
14.11.2018 10:00:00 9,3 8,6 35 19 54 29 S 0,0
14.11.2018 09:00:00 9,0 8,6 41 22 59 32 SSW 0,0
14.11.2018 08:00:00 8,6 8,5 42 23 61 33 SSW 0,0
14.11.2018 07:00:00 8,4 8,3 42 23 59 32 S 0,0
14.11.2018 06:00:00 8,3 8,2 39 21 57 31 SSW 0,2
14.11.2018 05:00:00 8,2 8,0 37 20 57 31 S 0,4
14.11.2018 04:00:00 8,2 7,7 37 20 63 34 S 0,2
14.11.2018 03:00:00 7,8 7,2 34 18 54 29 S 0,0
14.11.2018 02:00:00 7,9 7,1 31 17 52 28 S 0,0
14.11.2018 01:00:00 7,9 6,8 39 21 54 29 S 0,0
14.11.2018 00:00:00 7,7 6,8 35 19 54 29 SSW 0,0
13.11.2018 23:00:00 7,9 6,8 37 20 54 29 SSW 0,0
13.11.2018 22:00:00 7,6 6,3 26 14 - - SSW 0,0
13.11.2018 21:00:00 7,5 5,8 29 16 - - SSW 0,0
13.11.2018 20:00:00 7,4 5,6 28 15 - - SSW 0,0
13.11.2018 19:00:00 6,7 5,0 28 15 - - SW 0,0
13.11.2018 18:00:00 6,7 4,7 26 14 - - SW 0,0
13.11.2018 17:00:00 7,4 5,2 16 9 - - SW 0,0
13.11.2018 16:00:00 8,1 5,3 24 13 - - WSW 0,0
13.11.2018 15:00:00 9,7 5,2 22 12 48 26 SW 0,0
13.11.2018 14:00:00 10,3 5,2 29 16 52 28 WSW 0,0
13.11.2018 13:00:00 10,3 5,5 31 17 52 28 W 0,0
13.11.2018 12:00:00 9,9 5,7 29 16 52 28 WSW 0,0
13.11.2018 11:00:00 9,4 5,1 29 16 50 27 WSW 0,0
13.11.2018 10:00:00 8,3 6,2 28 15 - - SW 0,0
13.11.2018 09:00:00 7,2 6,7 24 13 - - SW 0,0
13.11.2018 08:00:00 6,5 6,3 24 13 - - SW 0,0
13.11.2018 07:00:00 6,5 6,3 29 16 - - SW 0,0
13.11.2018 06:00:00 6,3 6,0 28 15 - - SW 0,0
13.11.2018 05:00:00 6,1 5,5 29 16 - - SW 0,0
13.11.2018 04:00:00 5,8 5,1 28 15 46 25 SSW 0,0
13.11.2018 03:00:00 5,8 5,1 29 16 48 26 SSW 0,0
13.11.2018 02:00:00 6,4 5,2 31 17 55 30 SSW 0,0
13.11.2018 01:00:00 6,5 5,4 39 21 57 31 SSW 0,0
13.11.2018 00:00:00 6,6 5,6 39 21 57 31 SSW 0,0
12.11.2018 23:00:00 7,1 5,9 39 21 57 31 SSW 0,0
12.11.2018 22:00:00 7,1 6,0 35 19 57 31 S 0,0
12.11.2018 21:00:00 7,3 5,9 35 19 52 28 SSW 0,0
12.11.2018 20:00:00 7,3 5,9 35 19 48 26 S 0,0
12.11.2018 19:00:00 7,3 6,4 29 16 - - S 0,0
12.11.2018 18:00:00 7,7 6,4 31 17 46 25 S 0,2
12.11.2018 17:00:00 8,3 7,6 24 13 - - S 0,6
12.11.2018 16:00:00 8,0 7,1 31 17 - - SSW 1,6
12.11.2018 15:00:00 10,0 7,4 24 13 - - S 0,0
12.11.2018 14:00:00 10,1 7,4 34 18 46 25 SSW 0,0
12.11.2018 13:00:00 9,7 7,8 28 15 - - S 0,0
12.11.2018 12:00:00 9,2 8,0 28 15 48 26 SSW 0,0
12.11.2018 11:00:00 7,9 7,5 34 18 48 26 SSW 0,0
12.11.2018 10:00:00 7,4 7,3 29 16 - - S 0,0
12.11.2018 09:00:00 6,9 6,9 26 14 - - S 0,0
12.11.2018 08:00:00 6,4 6,4 26 14 - - S 0,0
12.11.2018 07:00:00 6,4 6,4 22 12 - - SSW 0,0
12.11.2018 06:00:00 6,6 6,6 26 14 - - S 0,0
12.11.2018 05:00:00 6,5 6,4 29 16 50 27 S 0,0
12.11.2018 04:00:00 6,2 5,9 31 17 46 25 S 0,0
12.11.2018 03:00:00 6,1 5,9 26 14 48 26 SSW 0,0
12.11.2018 02:00:00 5,7 5,2 34 18 46 25 S 0,0
12.11.2018 01:00:00 5,9 5,4 29 16 - - S 0,0
12.11.2018 00:00:00 5,0 4,6 21 11 57 31 S 0,0
11.11.2018 23:00:00 5,5 4,9 21 11 - - S 0,0
11.11.2018 22:00:00 5,4 4,8 18 10 - - S 0,0
11.11.2018 21:00:00 6,0 5,3 22 12 - - S 0,0
11.11.2018 20:00:00 6,1 5,1 21 11 - - S 0,0
11.11.2018 19:00:00 5,7 4,4 16 9 - - S 0,0
11.11.2018 18:00:00 6,5 5,2 22 12 - - SSW 0,0
11.11.2018 17:00:00 6,8 5,7 26 14 - - SSW 0,0
11.11.2018 16:00:00 7,3 6,3 22 12 - - SW 0,0
11.11.2018 15:00:00 7,6 7,2 28 15 48 26 SW 0,0
11.11.2018 14:00:00 7,5 7,5 28 15 - - SSW 0,6
11.11.2018 13:00:00 7,3 7,3 21 11 - - SSW 0,6
11.11.2018 12:00:00 7,3 7,1 16 9 - - S 0,6
11.11.2018 11:00:00 7,0 6,6 18 10 - - SSE 0,0
11.11.2018 10:00:00 6,5 6,3 21 11 - - SSE 0,0
11.11.2018 09:00:00 6,2 6,2 21 11 - - S 0,0
11.11.2018 08:00:00 6,2 6,2 15 8 - - S 0,0
11.11.2018 07:00:00 6,4 6,4 15 8 - - S 0,0
11.11.2018 06:00:00 6,6 6,6 15 8 - - S 0,0
11.11.2018 05:00:00 6,5 6,5 18 10 - - S 0,0
11.11.2018 04:00:00 6,6 6,6 18 10 - - S 0,0
11.11.2018 03:00:00 6,6 6,6 21 11 - - SSW 0,0
11.11.2018 02:00:00 6,5 6,5 15 8 - - S 0,0
11.11.2018 01:00:00 6,6 6,6 21 11 - - SSW 0,0
11.11.2018 00:00:00 6,9 6,9 22 12 - - S 0,0
10.11.2018 23:00:00 7,2 7,0 21 11 - - S 0,0
10.11.2018 22:00:00 7,4 7,1 22 12 - - S 0,0
10.11.2018 21:00:00 7,6 7,3 24 13 - - S 0,0
10.11.2018 20:00:00 7,4 7,0 29 16 - - S 0,0
10.11.2018 19:00:00 7,6 6,7 31 17 48 26 S 0,0
10.11.2018 18:00:00 8,5 7,7 29 16 46 25 S 0,0
10.11.2018 17:00:00 8,6 8,1 31 17 48 26 S 0,0
10.11.2018 16:00:00 9,1 7,7 28 15 - - SSE 0,0
10.11.2018 15:00:00 8,9 7,6 21 11 - - SSE 0,0
10.11.2018 14:00:00 9,4 7,4 22 12 - - S 0,0
10.11.2018 13:00:00 10,1 7,8 26 14 - - S 0,0
10.11.2018 12:00:00 9,4 7,9 31 17 48 26 SSW 0,0
10.11.2018 11:00:00 8,5 8,1 31 17 46 25 SSW 0,0
10.11.2018 10:00:00 7,6 7,5 29 16 50 27 SSW 0,0
10.11.2018 09:00:00 7,2 7,2 34 18 46 25 SSW 0,0
10.11.2018 08:00:00 7,1 7,1 29 16 - - SSW 0,0
10.11.2018 07:00:00 7,5 7,5 26 14 48 26 SSW 0,0
10.11.2018 06:00:00 7,9 7,9 29 16 - - SSW 0,0
10.11.2018 05:00:00 8,2 8,2 26 14 - - SSW 0,0
10.11.2018 04:00:00 8,2 8,1 24 13 50 27 SSW 0,4
10.11.2018 03:00:00 8,5 8,5 35 19 52 28 S 0,2
10.11.2018 02:00:00 8,5 8,5 41 22 54 29 S 0,8
10.11.2018 01:00:00 8,4 8,2 37 20 63 34 S 2,4
10.11.2018 00:00:00 8,2 8,0 46 25 70 38 SSE 2,4
09.11.2018 23:00:00 7,8 7,6 44 24 83 45 SSE 3,0
09.11.2018 22:00:00 7,7 7,3 48 26 68 37 SSE 3,6
09.11.2018 21:00:00 7,9 6,8 41 22 70 38 SSE 0,2
09.11.2018 20:00:00 8,5 6,6 42 23 65 35 SSE 0,0
09.11.2018 19:00:00 8,5 7,0 37 20 54 29 SSE 0,0
09.11.2018 18:00:00 8,7 8,1 34 18 50 27 SSE 0,2
09.11.2018 17:00:00 8,8 8,2 34 18 50 27 SSE 0,0
09.11.2018 16:00:00 8,7 7,8 29 16 46 25 SSE 0,0
09.11.2018 15:00:00 8,6 7,7 31 17 52 28 SSE 0,0
09.11.2018 14:00:00 8,8 7,5 28 15 52 28 SE 0,0
09.11.2018 13:00:00 9,1 7,0 34 18 50 27 SSE 0,0
09.11.2018 12:00:00 9,5 6,8 31 17 52 28 SSE 0,0
09.11.2018 11:00:00 8,2 7,0 26 14 - - SSE 0,0
09.11.2018 10:00:00 7,3 6,7 28 15 - - SSE 0,0
09.11.2018 09:00:00 7,0 6,5 28 15 46 25 SSE 0,0
09.11.2018 08:00:00 6,7 6,5 28 15 - - SSE 0,0
09.11.2018 07:00:00 6,3 6,1 28 15 - - SSE 0,0
09.11.2018 06:00:00 5,7 5,5 29 16 48 26 SSE 0,0
09.11.2018 05:00:00 5,7 5,5 29 16 - - SSE 0,0
09.11.2018 04:00:00 5,5 5,3 24 13 - - SSE 0,0
09.11.2018 03:00:00 5,2 4,6 21 11 - - SSE 0,0
09.11.2018 02:00:00 5,6 4,9 24 13 - - SSE 0,0
09.11.2018 01:00:00 5,7 4,6 28 15 46 25 SSE 0,0
09.11.2018 00:00:00 6,3 5,0 29 16 46 25 SSE 0,0

tt = temperature
td = dewpoint
ff = wind speed
fx = gusts
dd = wind direction
rr = precipitation

Next stations